Main page
METAR-TAF:

METAR-TAF

Airports :

Newton Municipal Airport

Newton, Iowa, United States

latitude: 41-41N, longitude: 093-01W, elevation: 951 ft

Current weather observation

The report was made 15 minutes ago, at 15:15 UTC
Wind 13 mph from the North/Northwest with gusts up to 23 mph
Temperature 70°F
Humidity 100%
Pressure 29.86 in. Hg
Visibility: 10 miles
Scattered clouds at a height of 1300 ft
Broken clouds at a height of 1800 ft

METAR: KTNU 281515Z AUTO 34011G20KT 10SM SCT013 BKN018 21/21 A2986 RMK A01

Time: 10:30 (15:30 UTC)


TAF: missing

Weather observations and forecasts of more than 4000 airports (METAR and TAF reports).

The available stations are represented by yellow and red dots on the map.

Hover mouse over dot to see the name of the station.

Then click to see weather observations and forecasts.

To change the map : click on the green buttons with a black cross to zoom in, on the green button with a dash to zoom out, or on the green arrows for adjacent maps.


METAR-TAF: